createdAt,value
2023-06-07T04:00:38.240Z,5.62
2023-06-07T04:01:39.139Z,5.62
2023-06-07T04:02:39.164Z,11.25
2023-06-07T04:03:39.357Z,11.25
2023-06-07T04:04:39.254Z,11.25
2023-06-07T04:05:39.104Z,11.25
2023-06-07T04:06:39.088Z,11.25
2023-06-07T04:07:39.089Z,11.25
2023-06-07T04:08:39.079Z,11.25
2023-06-07T04:09:39.059Z,11.25
2023-06-07T04:10:39.047Z,11.25
2023-06-07T04:11:39.041Z,11.25
2023-06-07T04:12:39.032Z,11.25
2023-06-07T04:13:39.077Z,11.25
2023-06-07T04:14:39.022Z,11.25
2023-06-07T04:15:39.043Z,11.25
2023-06-07T04:16:39.034Z,11.25
2023-06-07T04:17:38.995Z,11.25
2023-06-07T04:18:38.960Z,11.25
2023-06-07T04:19:43.015Z,11.25
2023-06-07T04:20:38.956Z,16.88
2023-06-07T04:21:38.940Z,16.88
2023-06-07T04:22:38.951Z,16.88
2023-06-07T04:23:38.905Z,16.88
2023-06-07T04:24:38.928Z,16.88
2023-06-07T04:25:38.882Z,16.88
2023-06-07T04:26:38.867Z,16.88
2023-06-07T04:27:38.895Z,16.88
2023-06-07T04:28:38.863Z,16.88
2023-06-07T04:29:38.870Z,16.88
2023-06-07T04:30:38.829Z,16.88
2023-06-07T04:31:40.682Z,16.88
2023-06-07T04:32:38.877Z,16.88
2023-06-07T04:33:38.790Z,16.88
2023-06-07T04:34:38.802Z,16.88
2023-06-07T04:35:38.781Z,16.88
2023-06-07T04:36:38.853Z,16.88
2023-06-07T04:37:38.760Z,16.88
2023-06-07T04:38:54.047Z,16.88
2023-06-07T04:39:38.733Z,16.88
2023-06-07T04:40:38.747Z,16.88
2023-06-07T04:41:38.702Z,16.88
2023-06-07T04:42:38.701Z,22.50
2023-06-07T04:43:38.681Z,22.50
2023-06-07T04:44:38.707Z,22.50
2023-06-07T04:45:38.668Z,22.50
2023-06-07T04:46:38.660Z,22.50
2023-06-07T04:47:38.687Z,22.50
2023-06-07T04:48:38.637Z,22.50
2023-06-07T04:49:38.630Z,22.50
2023-06-07T04:50:38.617Z,22.50
2023-06-07T04:51:38.595Z,22.50
2023-06-07T04:52:38.575Z,22.50
2023-06-07T04:53:38.566Z,28.12
2023-06-07T04:54:38.562Z,28.12
2023-06-07T04:55:38.549Z,28.12
2023-06-07T04:56:38.555Z,28.12
2023-06-07T04:57:38.539Z,28.12
2023-06-07T04:58:38.512Z,28.12
2023-06-07T04:59:38.509Z,22.50
2023-06-07T05:00:38.520Z,28.12
2023-06-07T05:01:38.620Z,28.12
2023-06-07T05:02:38.501Z,28.12
2023-06-07T05:03:40.711Z,28.12
2023-06-07T05:04:38.457Z,22.50
2023-06-07T05:05:38.608Z,22.50
2023-06-07T05:06:38.559Z,22.50
2023-06-07T05:07:38.435Z,28.12
2023-06-07T05:08:38.398Z,28.12
2023-06-07T05:09:38.452Z,28.12
2023-06-07T05:10:38.385Z,28.12
2023-06-07T05:11:38.394Z,28.12
2023-06-07T05:12:38.364Z,28.12
2023-06-07T05:13:38.384Z,28.12
2023-06-07T05:14:38.419Z,28.12
2023-06-07T05:15:38.364Z,28.12
2023-06-07T05:16:39.450Z,22.50
2023-06-07T05:17:38.400Z,22.50
2023-06-07T05:18:38.319Z,22.50
2023-06-07T05:19:38.300Z,22.50
2023-06-07T05:20:38.283Z,28.12
2023-06-07T05:21:38.264Z,28.12
2023-06-07T05:22:38.360Z,28.12
2023-06-07T05:23:38.350Z,28.12
2023-06-07T05:24:38.214Z,22.50
2023-06-07T05:25:38.218Z,22.50
2023-06-07T05:26:38.200Z,22.50
2023-06-07T05:27:38.260Z,22.50
2023-06-07T05:28:38.196Z,28.12
2023-06-07T05:29:38.165Z,28.12
2023-06-07T05:30:38.194Z,28.12
2023-06-07T05:31:38.221Z,22.50
2023-06-07T05:32:38.291Z,22.50
2023-06-07T05:33:38.147Z,28.12
2023-06-07T05:34:38.141Z,28.12
2023-06-07T05:35:38.332Z,28.12
2023-06-07T05:36:38.102Z,28.12
2023-06-07T05:37:38.094Z,28.12
2023-06-07T05:38:38.125Z,28.12
2023-06-07T05:39:38.937Z,22.50
2023-06-07T05:40:38.095Z,22.50
2023-06-07T05:41:38.043Z,28.12
2023-06-07T05:42:38.028Z,28.12
2023-06-07T05:43:38.008Z,28.12
2023-06-07T05:44:38.067Z,28.12
2023-06-07T05:45:37.988Z,28.12
2023-06-07T05:46:38.066Z,22.50
2023-06-07T05:47:38.013Z,28.12
2023-06-07T05:48:37.944Z,22.50
2023-06-07T05:49:38.000Z,22.50
2023-06-07T05:50:39.007Z,22.50
2023-06-07T05:51:37.986Z,22.50
2023-06-07T05:52:38.016Z,22.50
2023-06-07T05:53:37.971Z,22.50
2023-06-07T05:54:37.978Z,22.50
2023-06-07T05:55:38.042Z,22.50
2023-06-07T05:56:37.896Z,22.50
2023-06-07T05:57:38.036Z,28.12
2023-06-07T05:58:37.883Z,22.50
2023-06-07T05:59:37.899Z,22.50
2023-06-07T06:00:37.863Z,22.50
2023-06-07T06:01:37.929Z,22.50
2023-06-07T06:02:38.021Z,22.50
2023-06-07T06:03:37.904Z,22.50
2023-06-07T06:04:37.919Z,22.50
2023-06-07T06:05:37.887Z,22.50
2023-06-07T06:06:37.834Z,22.50
2023-06-07T06:07:37.735Z,22.50
2023-06-07T06:08:37.733Z,22.50
2023-06-07T06:09:37.700Z,22.50
2023-06-07T06:10:37.723Z,22.50
2023-06-07T06:11:37.699Z,22.50
2023-06-07T06:12:37.787Z,22.50
2023-06-07T06:13:37.735Z,22.50
2023-06-07T06:14:37.654Z,28.12
2023-06-07T06:15:37.770Z,28.12
2023-06-07T06:16:37.689Z,28.12
2023-06-07T06:17:37.677Z,28.12
2023-06-07T06:18:37.629Z,28.12
2023-06-07T06:19:37.613Z,28.12
2023-06-07T06:20:37.657Z,28.12
2023-06-07T06:21:37.705Z,28.12
2023-06-07T06:22:37.591Z,28.12
2023-06-07T06:23:37.645Z,28.12
2023-06-07T06:24:37.533Z,28.12
2023-06-07T06:25:38.314Z,33.75
2023-06-07T06:26:37.554Z,33.75
2023-06-07T06:27:37.554Z,33.75
2023-06-07T06:28:37.561Z,33.75
2023-06-07T06:29:37.507Z,33.75
2023-06-07T06:30:37.519Z,33.75
2023-06-07T06:31:37.556Z,33.75
2023-06-07T06:32:37.564Z,33.75
2023-06-07T06:33:37.498Z,39.38
2023-06-07T06:34:37.491Z,39.38
2023-06-07T06:35:37.460Z,39.38
2023-06-07T06:36:37.433Z,39.38
2023-06-07T06:37:37.438Z,39.38
2023-06-07T06:38:37.413Z,39.38
2023-06-07T06:39:37.401Z,39.38
2023-06-07T06:40:37.363Z,39.38
2023-06-07T06:41:37.349Z,39.38
2023-06-07T06:42:37.373Z,45.00
2023-06-07T06:43:37.322Z,45.00
2023-06-07T06:44:37.306Z,45.00
2023-06-07T06:45:37.331Z,45.00
2023-06-07T06:46:37.397Z,45.00
2023-06-07T06:47:37.461Z,45.00
2023-06-07T06:48:37.350Z,45.00
2023-06-07T06:49:37.319Z,45.00
2023-06-07T06:50:37.802Z,45.00
2023-06-07T06:51:37.336Z,45.00
2023-06-07T06:52:37.372Z,45.00
2023-06-07T06:53:37.249Z,45.00
2023-06-07T06:54:37.230Z,45.00
2023-06-07T06:55:37.336Z,45.00
2023-06-07T06:56:37.224Z,45.00
2023-06-07T06:57:37.276Z,45.00
2023-06-07T06:58:37.166Z,45.00
2023-06-07T06:59:37.145Z,45.00
2023-06-07T07:00:37.141Z,45.00
2023-06-07T07:01:37.223Z,45.00
2023-06-07T07:02:37.137Z,45.00
2023-06-07T07:03:37.161Z,45.00
2023-06-07T07:04:37.209Z,45.00
2023-06-07T07:05:37.138Z,45.00
2023-06-07T07:06:37.143Z,45.00
2023-06-07T07:07:37.131Z,45.00
2023-06-07T07:08:37.079Z,45.00
2023-06-07T07:09:37.055Z,45.00
2023-06-07T07:10:37.184Z,45.00
2023-06-07T07:11:37.063Z,45.00
2023-06-07T07:12:37.002Z,45.00
2023-06-07T07:13:37.107Z,45.00
2023-06-07T07:14:37.012Z,45.00
2023-06-07T07:15:37.019Z,45.00
2023-06-07T07:16:39.089Z,45.00
2023-06-07T07:17:37.186Z,45.00
2023-06-07T07:18:37.019Z,45.00
2023-06-07T07:19:37.009Z,45.00
2023-06-07T07:20:36.971Z,45.00
2023-06-07T07:21:37.036Z,45.00
2023-06-07T07:22:36.969Z,45.00
2023-06-07T07:23:37.383Z,50.62
2023-06-07T07:24:36.876Z,50.62
2023-06-07T07:25:36.913Z,50.62
2023-06-07T07:26:37.041Z,50.62
2023-06-07T07:27:36.899Z,50.62
2023-06-07T07:28:36.843Z,50.62
2023-06-07T07:29:36.831Z,50.62
2023-06-07T07:30:36.811Z,50.62
2023-06-07T07:31:36.807Z,50.62
2023-06-07T07:32:36.851Z,50.62
2023-06-07T07:33:36.785Z,50.62
2023-06-07T07:34:38.562Z,50.62
2023-06-07T07:35:36.799Z,50.62
2023-06-07T07:36:37.349Z,50.62
2023-06-07T07:37:36.750Z,50.62
2023-06-07T07:38:36.759Z,50.62
2023-06-07T07:39:36.727Z,50.62
2023-06-07T07:40:36.703Z,50.62
2023-06-07T07:41:36.695Z,56.25
2023-06-07T07:42:36.684Z,56.25
2023-06-07T07:43:38.320Z,56.25
2023-06-07T07:44:36.656Z,56.25
2023-06-07T07:45:36.697Z,56.25
2023-06-07T07:46:36.829Z,61.88
2023-06-07T07:47:36.679Z,56.25
2023-06-07T07:48:36.697Z,56.25
2023-06-07T07:49:36.926Z,56.25
2023-06-07T07:50:36.637Z,56.25
2023-06-07T07:51:36.624Z,56.25
2023-06-07T07:52:36.573Z,56.25
2023-06-07T07:53:36.589Z,56.25
2023-06-07T07:54:36.588Z,56.25
2023-06-07T07:55:36.603Z,56.25
2023-06-07T07:56:36.607Z,56.25
2023-06-07T07:57:36.617Z,56.25
2023-06-07T07:58:36.585Z,56.25
2023-06-07T07:59:36.502Z,56.25
2023-06-07T08:00:36.490Z,61.88
2023-06-07T08:01:37.515Z,56.25
2023-06-07T08:02:36.522Z,56.25
2023-06-07T08:03:36.729Z,50.62
2023-06-07T08:04:36.506Z,50.62
2023-06-07T08:05:36.561Z,50.62
2023-06-07T08:06:37.292Z,50.62
2023-06-07T08:07:37.482Z,50.62
2023-06-07T08:08:37.427Z,50.62
2023-06-07T08:09:36.444Z,50.62
2023-06-07T08:10:36.394Z,50.62
2023-06-07T08:11:36.447Z,56.25
2023-06-07T08:12:37.578Z,56.25
2023-06-07T08:13:36.363Z,61.88
2023-06-07T08:14:36.322Z,56.25
2023-06-07T08:15:36.332Z,56.25
2023-06-07T08:16:36.448Z,56.25
2023-06-07T08:17:36.345Z,56.25
2023-06-07T08:18:36.444Z,61.88
2023-06-07T08:19:36.332Z,56.25
2023-06-07T08:20:36.260Z,61.88
2023-06-07T08:21:36.424Z,61.88
2023-06-07T08:22:36.276Z,61.88
2023-06-07T08:23:36.338Z,50.62
2023-06-07T08:24:36.290Z,50.62
2023-06-07T08:25:36.540Z,50.62
2023-06-07T08:26:36.275Z,50.62
2023-06-07T08:27:36.711Z,50.62
2023-06-07T08:28:36.204Z,56.25
2023-06-07T08:29:40.868Z,56.25
2023-06-07T08:30:37.975Z,56.25
2023-06-07T08:31:36.944Z,56.25
2023-06-07T08:32:36.553Z,56.25
2023-06-07T08:33:36.115Z,61.88
2023-06-07T08:34:36.147Z,61.88
2023-06-07T08:35:36.139Z,67.50
2023-06-07T08:36:36.095Z,78.75
2023-06-07T08:37:37.864Z,73.12
2023-06-07T08:38:37.056Z,67.50
2023-06-07T08:39:36.115Z,90.00
2023-06-07T08:40:36.351Z,67.50
2023-06-07T08:41:36.094Z,67.50
2023-06-07T08:42:36.052Z,67.50
2023-06-07T08:43:36.078Z,67.50
2023-06-07T08:44:36.049Z,73.12
2023-06-07T08:45:35.997Z,78.75
2023-06-07T08:46:36.093Z,73.12
2023-06-07T08:47:36.017Z,90.00
2023-06-07T08:48:36.489Z,84.38
2023-06-07T08:49:35.986Z,78.75
2023-06-07T08:50:35.925Z,90.00
2023-06-07T08:51:35.932Z,78.75
2023-06-07T08:52:35.920Z,106.88
2023-06-07T08:53:35.958Z,123.75
2023-06-07T08:54:36.491Z,123.75
2023-06-07T08:55:35.871Z,123.75
2023-06-07T08:56:35.985Z,123.75
2023-06-07T08:57:35.854Z,123.75
2023-06-07T08:58:35.854Z,123.75
2023-06-07T08:59:35.908Z,123.75
2023-06-07T09:00:35.850Z,123.75
2023-06-07T09:01:35.931Z,123.75
2023-06-07T09:02:35.831Z,129.38
2023-06-07T09:03:35.934Z,129.38
2023-06-07T09:04:35.821Z,129.38
2023-06-07T09:05:35.790Z,129.38
2023-06-07T09:06:35.763Z,129.38
2023-06-07T09:07:35.752Z,129.38
2023-06-07T09:08:35.775Z,129.38
2023-06-07T09:09:35.743Z,129.38
2023-06-07T09:10:35.715Z,112.50
2023-06-07T09:11:35.743Z,101.25
2023-06-07T09:12:35.697Z,95.62
2023-06-07T09:13:35.690Z,129.38
2023-06-07T09:14:35.718Z,118.12
2023-06-07T09:15:35.670Z,95.62
2023-06-07T09:16:35.812Z,101.25
2023-06-07T09:17:35.934Z,118.12
2023-06-07T09:18:35.676Z,123.75
2023-06-07T09:19:35.671Z,129.38
2023-06-07T09:20:35.610Z,129.38
2023-06-07T09:21:35.610Z,129.38
2023-06-07T09:22:35.593Z,112.50
2023-06-07T09:23:35.596Z,112.50
2023-06-07T09:24:35.617Z,112.50
2023-06-07T09:25:35.591Z,95.62
2023-06-07T09:26:35.543Z,101.25
2023-06-07T09:27:35.527Z,118.12
2023-06-07T09:28:35.587Z,123.75
2023-06-07T09:29:35.557Z,129.38
2023-06-07T09:30:35.524Z,123.75
2023-06-07T09:31:35.529Z,123.75
2023-06-07T09:32:35.515Z,123.75
2023-06-07T09:33:35.518Z,123.75
2023-06-07T09:34:35.482Z,123.75
2023-06-07T09:35:35.478Z,129.38
2023-06-07T09:36:35.548Z,129.38
2023-06-07T09:37:35.485Z,129.38
2023-06-07T09:38:35.465Z,129.38
2023-06-07T09:39:35.409Z,106.88
2023-06-07T09:40:35.388Z,90.00
2023-06-07T09:41:35.455Z,95.62
2023-06-07T09:42:35.384Z,101.25
2023-06-07T09:43:35.429Z,101.25
2023-06-07T09:44:35.411Z,78.75
2023-06-07T09:45:35.430Z,95.62
2023-06-07T09:46:35.426Z,112.50
2023-06-07T09:47:35.536Z,95.62
2023-06-07T09:48:35.453Z,95.62
2023-06-07T09:49:35.589Z,101.25
2023-06-07T09:50:35.284Z,118.12
2023-06-07T09:51:35.285Z,118.12
2023-06-07T09:52:35.353Z,118.12
2023-06-07T09:53:35.305Z,118.12
2023-06-07T09:54:35.353Z,118.12
2023-06-07T09:55:35.306Z,123.75
2023-06-07T09:56:35.284Z,123.75
2023-06-07T09:57:35.240Z,123.75
2023-06-07T09:58:35.260Z,129.38
2023-06-07T09:59:35.221Z,135.00
2023-06-07T10:00:35.431Z,140.62
2023-06-07T10:01:35.217Z,140.62
2023-06-07T10:02:35.198Z,135.00
2023-06-07T10:03:35.219Z,135.00
2023-06-07T10:04:35.250Z,112.50
2023-06-07T10:05:35.172Z,112.50
2023-06-07T10:06:35.119Z,101.25
2023-06-07T10:07:35.103Z,140.62
2023-06-07T10:08:35.162Z,140.62
2023-06-07T10:09:35.091Z,135.00
2023-06-07T10:10:35.117Z,135.00
2023-06-07T10:11:35.072Z,135.00
2023-06-07T10:12:35.095Z,140.62
2023-06-07T10:13:35.132Z,140.62
2023-06-07T10:14:35.112Z,140.62
2023-06-07T10:15:35.051Z,140.62
2023-06-07T10:16:35.087Z,140.62
2023-06-07T10:17:35.070Z,140.62
2023-06-07T10:18:35.011Z,146.25
2023-06-07T10:19:34.998Z,146.25
2023-06-07T10:20:34.983Z,146.25
2023-06-07T10:21:35.017Z,151.88
2023-06-07T10:22:34.978Z,151.88
2023-06-07T10:23:35.003Z,151.88
2023-06-07T10:24:35.011Z,151.88
2023-06-07T10:25:34.919Z,151.88
2023-06-07T10:26:35.057Z,151.88
2023-06-07T10:27:34.942Z,151.88
2023-06-07T10:28:34.866Z,157.50
2023-06-07T10:29:34.908Z,163.12
2023-06-07T10:30:34.926Z,157.50
2023-06-07T10:31:34.918Z,157.50
2023-06-07T10:32:34.993Z,163.12
2023-06-07T10:33:34.915Z,163.12
2023-06-07T10:34:34.805Z,163.12
2023-06-07T10:35:34.871Z,163.12
2023-06-07T10:36:34.873Z,163.12
2023-06-07T10:37:34.820Z,168.75
2023-06-07T10:38:34.825Z,168.75
2023-06-07T10:39:34.880Z,168.75
2023-06-07T10:40:34.793Z,168.75
2023-06-07T10:41:34.798Z,135.00
2023-06-07T10:42:34.759Z,118.12
2023-06-07T10:43:34.788Z,118.12
2023-06-07T10:44:34.707Z,146.25
2023-06-07T10:45:34.720Z,151.88
2023-06-07T10:46:34.800Z,163.12
2023-06-07T10:47:34.729Z,163.12
2023-06-07T10:48:34.702Z,168.75
2023-06-07T10:49:34.658Z,163.12
2023-06-07T10:50:34.699Z,135.00
2023-06-07T10:51:34.684Z,118.12
2023-06-07T10:52:34.627Z,135.00
2023-06-07T10:53:34.681Z,123.75
2023-06-07T10:54:34.603Z,151.88
2023-06-07T10:55:34.686Z,163.12
2023-06-07T10:56:34.606Z,163.12
2023-06-07T10:57:34.590Z,168.75
2023-06-07T10:58:34.565Z,168.75
2023-06-07T10:59:34.732Z,163.12
2023-06-07T11:00:34.584Z,163.12
2023-06-07T11:01:34.598Z,157.50
2023-06-07T11:02:34.661Z,157.50
2023-06-07T11:03:34.735Z,157.50
2023-06-07T11:04:34.702Z,157.50
2023-06-07T11:05:34.643Z,157.50
2023-06-07T11:06:34.526Z,157.50
2023-06-07T11:07:34.487Z,157.50
2023-06-07T11:08:34.519Z,157.50
2023-06-07T11:09:34.434Z,157.50
2023-06-07T11:10:34.588Z,157.50
2023-06-07T11:11:34.416Z,157.50
2023-06-07T11:12:34.567Z,157.50
2023-06-07T11:13:34.404Z,157.50
2023-06-07T11:14:34.493Z,157.50
2023-06-07T11:15:34.410Z,157.50
2023-06-07T11:16:34.523Z,151.88
2023-06-07T11:17:34.431Z,151.88
2023-06-07T11:18:34.408Z,151.88
2023-06-07T11:19:34.374Z,151.88
2023-06-07T11:20:34.320Z,157.50
2023-06-07T11:21:34.322Z,157.50
2023-06-07T11:22:34.318Z,157.50
2023-06-07T11:23:34.331Z,157.50
2023-06-07T11:24:34.406Z,157.50
2023-06-07T11:25:34.378Z,157.50
2023-06-07T11:26:34.265Z,157.50
2023-06-07T11:27:34.266Z,157.50
2023-06-07T11:28:34.939Z,151.88
2023-06-07T11:29:34.256Z,157.50
2023-06-07T11:30:34.247Z,163.12
2023-06-07T11:31:34.247Z,168.75
2023-06-07T11:32:34.365Z,135.00
2023-06-07T11:33:34.874Z,123.75
2023-06-07T11:34:34.352Z,101.25
2023-06-07T11:35:34.268Z,112.50
2023-06-07T11:36:34.172Z,146.25
2023-06-07T11:37:34.214Z,174.38
2023-06-07T11:38:34.213Z,174.38
2023-06-07T11:39:34.174Z,168.75
2023-06-07T11:40:34.163Z,174.38
2023-06-07T11:41:34.134Z,174.38
2023-06-07T11:42:34.146Z,174.38
2023-06-07T11:43:34.173Z,180.00
2023-06-07T11:44:34.103Z,185.62
2023-06-07T11:45:34.062Z,185.62
2023-06-07T11:46:34.098Z,185.62
2023-06-07T11:47:34.226Z,191.25
2023-06-07T11:48:34.098Z,185.62
2023-06-07T11:49:34.043Z,157.50
2023-06-07T11:50:34.045Z,140.62
2023-06-07T11:51:34.038Z,163.12
2023-06-07T11:52:34.116Z,180.00
2023-06-07T11:53:34.005Z,180.00
2023-06-07T11:54:33.993Z,180.00
2023-06-07T11:55:34.008Z,180.00
2023-06-07T11:56:33.945Z,180.00
2023-06-07T11:57:34.045Z,180.00
2023-06-07T11:58:33.943Z,174.38
2023-06-07T11:59:33.919Z,174.38
2023-06-07T12:00:33.891Z,168.75
2023-06-07T12:01:33.898Z,168.75
2023-06-07T12:02:34.038Z,163.12
2023-06-07T12:03:33.982Z,174.38
2023-06-07T12:04:33.918Z,191.25
2023-06-07T12:05:33.848Z,196.88
2023-06-07T12:06:33.852Z,202.50
2023-06-07T12:07:33.819Z,202.50
2023-06-07T12:08:33.839Z,208.12
2023-06-07T12:09:33.824Z,208.12
2023-06-07T12:10:33.796Z,208.12
2023-06-07T12:11:33.786Z,208.12
2023-06-07T12:12:33.769Z,213.75
2023-06-07T12:13:33.794Z,219.38
2023-06-07T12:14:33.759Z,213.75
2023-06-07T12:15:34.546Z,219.38
2023-06-07T12:16:33.880Z,219.38
2023-06-07T12:17:33.725Z,225.00
2023-06-07T12:18:33.704Z,225.00
2023-06-07T12:19:33.712Z,219.38
2023-06-07T12:20:33.695Z,225.00
2023-06-07T12:21:33.678Z,219.38
2023-06-07T12:22:33.670Z,202.50
2023-06-07T12:23:33.733Z,202.50
2023-06-07T12:24:33.645Z,185.62
2023-06-07T12:25:33.716Z,191.25
2023-06-07T12:26:33.635Z,253.12
2023-06-07T12:27:33.640Z,253.12
2023-06-07T12:28:33.671Z,253.12
2023-06-07T12:29:33.595Z,253.12
2023-06-07T12:30:33.609Z,258.75
2023-06-07T12:31:33.602Z,275.62
2023-06-07T12:32:33.597Z,270.00
2023-06-07T12:33:33.570Z,275.62
2023-06-07T12:34:33.560Z,281.25
2023-06-07T12:35:33.552Z,286.88
2023-06-07T12:36:33.523Z,286.88
2023-06-07T12:37:33.622Z,303.75
2023-06-07T12:38:33.505Z,309.38
2023-06-07T12:39:33.519Z,315.00
2023-06-07T12:40:33.524Z,140.62
2023-06-07T12:41:33.543Z,90.00
2023-06-07T12:42:33.470Z,112.50
2023-06-07T12:43:33.478Z,275.62
2023-06-07T12:44:33.473Z,331.88
2023-06-07T12:45:33.469Z,286.88
2023-06-07T12:46:33.448Z,157.50
2023-06-07T12:47:33.414Z,123.75
2023-06-07T12:48:33.400Z,129.38
2023-06-07T12:49:33.406Z,331.88
2023-06-07T12:50:33.385Z,365.62
2023-06-07T12:51:33.372Z,376.88
2023-06-07T12:52:33.391Z,371.25
2023-06-07T12:53:33.403Z,382.50
2023-06-07T12:54:33.393Z,382.50
2023-06-07T12:55:33.311Z,399.38
2023-06-07T12:56:33.340Z,405.00
2023-06-07T12:57:33.323Z,399.38
2023-06-07T12:58:33.298Z,399.38
2023-06-07T12:59:33.280Z,399.38
2023-06-07T13:00:33.855Z,405.00
2023-06-07T13:01:33.358Z,405.00
2023-06-07T13:02:33.353Z,410.62
2023-06-07T13:03:33.366Z,163.12
2023-06-07T13:04:33.270Z,135.00
2023-06-07T13:05:33.282Z,174.38
2023-06-07T13:06:33.239Z,151.88
2023-06-07T13:07:33.224Z,157.50
2023-06-07T13:08:33.204Z,135.00
2023-06-07T13:09:33.369Z,354.38
2023-06-07T13:10:33.212Z,427.50
2023-06-07T13:11:33.206Z,450.00
2023-06-07T13:12:33.154Z,455.62
2023-06-07T13:13:33.202Z,450.00
2023-06-07T13:14:33.142Z,466.88
2023-06-07T13:15:33.134Z,303.75
2023-06-07T13:16:33.299Z,146.25
2023-06-07T13:17:33.273Z,140.62
2023-06-07T13:18:33.101Z,292.50
2023-06-07T13:19:33.124Z,303.75
2023-06-07T13:20:33.077Z,146.25
2023-06-07T13:21:33.112Z,140.62
2023-06-07T13:22:33.077Z,135.00
2023-06-07T13:23:33.142Z,135.00
2023-06-07T13:24:33.073Z,146.25
2023-06-07T13:25:33.097Z,371.25
2023-06-07T13:26:33.218Z,315.00
2023-06-07T13:27:33.010Z,264.38
2023-06-07T13:28:33.013Z,225.00
2023-06-07T13:29:32.994Z,360.00
2023-06-07T13:30:33.014Z,472.50
2023-06-07T13:31:33.008Z,523.12
2023-06-07T13:32:33.055Z,495.00
2023-06-07T13:33:32.955Z,523.12
2023-06-07T13:34:32.990Z,545.62
2023-06-07T13:35:36.015Z,545.62
2023-06-07T13:36:32.914Z,568.12
2023-06-07T13:37:33.561Z,562.50
2023-06-07T13:38:33.758Z,573.75
2023-06-07T13:39:32.922Z,331.88
2023-06-07T13:40:32.910Z,382.50
2023-06-07T13:41:32.894Z,540.00
2023-06-07T13:42:32.896Z,264.38
2023-06-07T13:43:49.401Z,219.38
2023-06-07T13:44:32.858Z,354.38
2023-06-07T13:45:32.834Z,568.12
2023-06-07T13:46:32.893Z,579.38
2023-06-07T13:47:32.839Z,568.12
2023-06-07T13:48:32.894Z,590.62
2023-06-07T13:49:32.797Z,613.12
2023-06-07T13:50:32.860Z,601.88
2023-06-07T13:51:32.762Z,585.00
2023-06-07T13:52:32.771Z,157.50
2023-06-07T13:53:32.769Z,129.38
2023-06-07T13:54:32.784Z,118.12
2023-06-07T13:55:32.725Z,118.12
2023-06-07T13:56:32.763Z,118.12
2023-06-07T13:57:32.761Z,123.75
2023-06-07T13:58:32.723Z,185.62
2023-06-07T13:59:32.806Z,230.62
2023-06-07T14:00:32.703Z,230.62
2023-06-07T14:01:32.746Z,590.62
2023-06-07T14:02:32.984Z,630.00
2023-06-07T14:03:32.901Z,658.12
2023-06-07T14:04:32.670Z,613.12
2023-06-07T14:05:32.686Z,388.12
2023-06-07T14:06:32.624Z,174.38
2023-06-07T14:07:32.629Z,219.38
2023-06-07T14:08:32.673Z,376.88
2023-06-07T14:09:32.579Z,506.25
2023-06-07T14:10:32.589Z,641.25
2023-06-07T14:11:32.575Z,669.38
2023-06-07T14:12:32.575Z,675.00
2023-06-07T14:13:35.570Z,624.38
2023-06-07T14:14:32.592Z,613.12
2023-06-07T14:15:32.603Z,635.62
2023-06-07T14:16:32.557Z,646.88
2023-06-07T14:17:32.687Z,365.62
2023-06-07T14:18:32.521Z,168.75
2023-06-07T14:19:32.605Z,140.62
2023-06-07T14:20:32.533Z,309.38
2023-06-07T14:21:32.495Z,298.12
2023-06-07T14:22:32.474Z,472.50
2023-06-07T14:23:32.471Z,472.50
2023-06-07T14:24:32.467Z,315.00
2023-06-07T14:25:32.466Z,596.25
2023-06-07T14:26:32.524Z,556.88
2023-06-07T14:27:32.464Z,151.88
2023-06-07T14:28:32.473Z,118.12
2023-06-07T14:29:32.395Z,106.88
2023-06-07T14:30:32.400Z,95.62
2023-06-07T14:31:32.471Z,95.62
2023-06-07T14:32:32.385Z,101.25
2023-06-07T14:33:32.902Z,118.12
2023-06-07T14:34:32.349Z,517.50
2023-06-07T14:35:33.115Z,691.88
2023-06-07T14:36:32.352Z,573.75
2023-06-07T14:37:32.349Z,191.25
2023-06-07T14:38:32.322Z,123.75
2023-06-07T14:39:32.306Z,106.88
2023-06-07T14:40:32.331Z,106.88
2023-06-07T14:41:32.282Z,118.12
2023-06-07T14:42:32.331Z,118.12
2023-06-07T14:43:32.255Z,112.50
2023-06-07T14:44:32.293Z,112.50
2023-06-07T14:45:32.235Z,129.38
2023-06-07T14:46:32.229Z,151.88
2023-06-07T14:47:32.315Z,630.00
2023-06-07T14:48:32.267Z,579.38
2023-06-07T14:49:32.191Z,360.00
2023-06-07T14:50:33.024Z,146.25
2023-06-07T14:51:32.201Z,258.75
2023-06-07T14:52:32.207Z,635.62
2023-06-07T14:53:32.197Z,675.00
2023-06-07T14:54:32.157Z,523.12
2023-06-07T14:55:32.136Z,472.50
2023-06-07T14:56:32.134Z,579.38
2023-06-07T14:57:32.134Z,646.88
2023-06-07T14:58:32.100Z,466.88
2023-06-07T14:59:32.101Z,213.75
2023-06-07T15:00:32.206Z,146.25
2023-06-07T15:01:32.115Z,135.00
2023-06-07T15:02:32.114Z,146.25
2023-06-07T15:03:32.069Z,174.38
2023-06-07T15:04:32.092Z,230.62
2023-06-07T15:05:32.054Z,596.25
2023-06-07T15:06:32.056Z,613.12
2023-06-07T15:07:32.052Z,399.38
2023-06-07T15:08:32.176Z,354.38
2023-06-07T15:09:32.094Z,270.00
2023-06-07T15:10:32.008Z,208.12
2023-06-07T15:11:31.986Z,337.50
2023-06-07T15:12:31.976Z,613.12
2023-06-07T15:13:31.953Z,658.12
2023-06-07T15:14:32.006Z,635.62
2023-06-07T15:15:31.943Z,635.62
2023-06-07T15:16:32.025Z,691.88
2023-06-07T15:17:31.989Z,714.38
2023-06-07T15:18:31.910Z,697.50
2023-06-07T15:19:31.915Z,697.50
2023-06-07T15:20:31.895Z,652.50
2023-06-07T15:21:31.876Z,444.38
2023-06-07T15:22:31.854Z,185.62
2023-06-07T15:23:31.925Z,129.38
2023-06-07T15:24:31.874Z,129.38
2023-06-07T15:25:31.964Z,135.00
2023-06-07T15:26:31.850Z,151.88
2023-06-07T15:27:31.844Z,320.62
2023-06-07T15:28:31.828Z,618.75
2023-06-07T15:29:31.855Z,348.75
2023-06-07T15:30:31.811Z,140.62
2023-06-07T15:31:31.844Z,90.00
2023-06-07T15:32:31.838Z,78.75
2023-06-07T15:33:31.809Z,73.12
2023-06-07T15:34:31.775Z,73.12
2023-06-07T15:35:31.751Z,78.75
2023-06-07T15:36:31.728Z,78.75
2023-06-07T15:37:31.740Z,84.38
2023-06-07T15:38:31.721Z,84.38
2023-06-07T15:39:31.747Z,90.00
2023-06-07T15:40:31.697Z,101.25
2023-06-07T15:41:31.683Z,112.50
2023-06-07T15:42:31.691Z,151.88
2023-06-07T15:43:31.788Z,146.25
2023-06-07T15:44:31.710Z,157.50
2023-06-07T15:45:31.732Z,180.00
2023-06-07T15:46:31.740Z,534.38
2023-06-07T15:47:31.668Z,663.75
2023-06-07T15:48:31.631Z,618.75
2023-06-07T15:49:31.660Z,320.62
2023-06-07T15:50:31.722Z,360.00
2023-06-07T15:51:31.636Z,213.75
2023-06-07T15:52:31.653Z,118.12
2023-06-07T15:53:31.614Z,78.75
2023-06-07T15:54:31.599Z,73.12
2023-06-07T15:55:31.569Z,73.12
2023-06-07T15:56:31.531Z,84.38
2023-06-07T15:57:31.536Z,101.25
2023-06-07T15:58:31.541Z,140.62
2023-06-07T15:59:31.526Z,112.50
2023-06-07T16:00:38.441Z,101.25
2023-06-07T16:01:31.632Z,106.88
2023-06-07T16:02:31.581Z,106.88
2023-06-07T16:03:46.374Z,84.38
2023-06-07T16:04:31.511Z,67.50
2023-06-07T16:05:31.560Z,67.50
2023-06-07T16:06:31.419Z,67.50
2023-06-07T16:07:31.430Z,73.12
2023-06-07T16:08:31.636Z,78.75
2023-06-07T16:09:31.474Z,84.38
2023-06-07T16:10:31.764Z,84.38
2023-06-07T16:11:31.454Z,84.38
2023-06-07T16:12:31.376Z,84.38
2023-06-07T16:13:31.373Z,84.38
2023-06-07T16:14:31.367Z,84.38
2023-06-07T16:15:31.386Z,106.88
2023-06-07T16:16:31.368Z,225.00
2023-06-07T16:17:31.342Z,388.12
2023-06-07T16:18:31.357Z,315.00
2023-06-07T16:19:31.361Z,298.12
2023-06-07T16:20:32.247Z,168.75
2023-06-07T16:21:31.290Z,168.75
2023-06-07T16:22:31.324Z,73.12
2023-06-07T16:23:31.313Z,67.50
2023-06-07T16:24:31.209Z,61.88
2023-06-07T16:25:31.331Z,61.88
2023-06-07T16:26:31.213Z,56.25
2023-06-07T16:27:31.230Z,56.25
2023-06-07T16:28:31.201Z,56.25
2023-06-07T16:29:31.191Z,56.25
2023-06-07T16:30:31.239Z,50.62
2023-06-07T16:31:31.295Z,50.62
2023-06-07T16:32:31.176Z,45.00
2023-06-07T16:33:31.159Z,45.00
2023-06-07T16:34:31.151Z,45.00
2023-06-07T16:35:31.151Z,45.00
2023-06-07T16:36:31.150Z,45.00
2023-06-07T16:37:31.090Z,56.25
2023-06-07T16:38:31.084Z,56.25
2023-06-07T16:39:31.105Z,56.25